logo
Search for airport 
image banner adimage banner adimage banner ad
image banner ad

LKFR - Frydlant

Located in Frydlant Nad Ostravici, Czech Republic

ICAO - LKFR, IATA -

Data provided by Airmate  

General information

Coordinates: N49°35'22" E18°22'45"
Elevation is 1440 feet MSL.
 
View others Airports in Moravian-Silesian Region

Operational data

Special qualification required
Current time UTC:
Current local time:
Weather at : LKMT - Ostrava/Mosnov ( 23 km )
METAR: LKMT 200700Z 22011KT 9999 BKN011 BKN018 05/03 Q1007 NOSIG
TAF: TAF LKMT 200500Z 2006/2106 20007KT 9999 OVC017 TEMPO 2006/2018 22011KT 7000 RA OVC009 PROB30 TEMPO 2010/2016 3000 SHRA BKN008CB BECMG 2018/2020 36015G25KT
View NOTAMs / SUP AIP / TFR affecting this airport [VIEW]
Communications frequencies: [VIEW]

Runways:

RWY identifierQFULength (ft)Width (ft)SurfaceLDA (ft)
082526213GRASS
262526213GRASS

Airport contact information

Address: Frydlant Nad Ostravici Czech Republic

Other aviation service providers

Aviation club (not for profit)

Aeroklub Frýdlant Nad Ostravicí

Aeroklub Frýdlant Nad Ostravicí
info@akfrydlant.cz+420558677616
+420777000494

Satellite view of LKFR